LFPN Airport Information

Runway Information
Runway 07R Length 3445 ft width 98 ft
Elevation 536 ft Threshold ft Heading 70
Runway 25L Length 3445 ft Width 98 ft
Elevation 499 ft Threshold ft Heading 250
Runway 07L Length 3609 ft width 98 ft
Elevation 538 ft Threshold ft Heading 70
Runway 25R Length 3609 ft Width 98 ft
Elevation 503 ft Threshold ft Heading 250
Airport Frequencies
Type ATIS Name ATIS Frequency 127.475 MHZ
Type GND Name GND Frequency 121.85 MHZ
Type TWR Name TWR Frequency 119.3 MHZ
Airport Navaids
Type VOR Name Toussus Frequency 108250 KHZ
Airport Weather Information & NOTAM
ADDS - METARS form results

(0156 UTC 20 September 2022)
Data provider http://aviationweather.gov/metar/data/
 
METAR text: LFPN 200130Z AUTO 33003KT CAVOK 07/04 Q1024
Conditions at: LFPN (TOUSSUS LE NOBLE, FR) observed 0130 UTC 20 September 2022
Temperature: 7.0°C (45°F)
Dewpoint: 4.0°C (39°F) [RH = 81%]
Pressure (altimeter): 30.24 inches Hg (1024.0 mb)
Winds: from the NNW (330 degrees) at 3 MPH (3 knots; 1.5 m/s)
Visibility: 6 or more miles (10+ km)
Ceiling: ceiling and visibility are OK
Clouds: unknown
Weather: no significant weather observed at this time

METAR text: LFPN 200100Z AUTO 35003KT CAVOK 07/04 Q1024
Conditions at: LFPN (TOUSSUS LE NOBLE, FR) observed 0100 UTC 20 September 2022
Temperature: 7.0°C (45°F)
Dewpoint: 4.0°C (39°F) [RH = 81%]
Pressure (altimeter): 30.24 inches Hg (1024.0 mb)
Winds: from the N (350 degrees) at 3 MPH (3 knots; 1.5 m/s)
Visibility: 6 or more miles (10+ km)
Ceiling: ceiling and visibility are OK
Clouds: unknown
Weather: no significant weather observed at this time

Forecast for: LFPN (TOUSSUS LE NOBLE, FR)
Text: TAF LFPN 191700Z 1918/2003 35010KT CAVOK
Forecast period: 1800 UTC 19 September 2022 to 0300 UTC 20 September 2022
Forecast type: FROM: standard forecast or significant change
Winds: from the N (350 degrees) at 12 MPH (10 knots; 5.1 m/s)
Visibility: 6 or more miles (10+ km)
Ceiling: unknown
Clouds: missing
Weather: NSW  (no significant weather)